createdAt,value
2023-04-04T00:00:57.176Z,98863.94
2023-04-04T00:03:25.888Z,98861.41
2023-04-04T00:05:54.253Z,98860.09
2023-04-04T00:08:23.116Z,98861.63
2023-04-04T00:10:51.348Z,98855.25
2023-04-04T00:13:20.117Z,98854.44
2023-04-04T00:15:48.519Z,98864.69
2023-04-04T00:18:19.256Z,98860.75
2023-04-04T00:20:47.607Z,98853.97
2023-04-04T00:23:16.084Z,98855.16
2023-04-04T00:25:45.383Z,98856.44
2023-04-04T00:28:13.824Z,98857.50
2023-04-04T00:30:42.202Z,98856.47
2023-04-04T00:33:10.921Z,98855.16
2023-04-04T00:35:40.803Z,98855.00
2023-04-04T00:38:09.461Z,98851.50
2023-04-04T00:40:42.565Z,98850.16
2023-04-04T00:43:11.637Z,98856.22
2023-04-04T00:45:40.202Z,98845.25
2023-04-04T00:48:08.797Z,98858.81
2023-04-04T00:50:37.225Z,98859.63
2023-04-04T00:53:07.447Z,98857.72
2023-04-04T00:55:38.660Z,98855.13
2023-04-04T00:58:07.466Z,98856.72
2023-04-04T01:00:36.440Z,98862.00
2023-04-04T01:03:07.858Z,98858.00
2023-04-04T01:05:36.119Z,98863.44
2023-04-04T01:08:06.178Z,98858.19
2023-04-04T01:10:34.724Z,98852.75
2023-04-04T01:13:03.249Z,98850.63
2023-04-04T01:15:31.660Z,98865.00
2023-04-04T01:18:03.957Z,98852.44
2023-04-04T01:20:33.763Z,98855.06
2023-04-04T01:23:02.488Z,98858.03
2023-04-04T01:25:34.155Z,98858.47
2023-04-04T01:28:02.743Z,98855.69
2023-04-04T01:30:33.926Z,98849.84
2023-04-04T01:33:05.356Z,98860.66
2023-04-04T01:35:37.974Z,98856.31
2023-04-04T01:38:17.011Z,98856.91
2023-04-04T01:40:50.254Z,98865.16
2023-04-04T01:43:18.974Z,98870.19
2023-04-04T01:45:47.379Z,98874.69
2023-04-04T01:48:16.783Z,98879.41
2023-04-04T01:50:45.105Z,98873.31
2023-04-04T01:53:13.703Z,98865.78
2023-04-04T01:55:42.545Z,98877.41
2023-04-04T01:58:12.440Z,98868.00
2023-04-04T02:00:40.757Z,98881.19
2023-04-04T02:03:09.628Z,98876.09
2023-04-04T02:05:37.993Z,98882.03
2023-04-04T02:08:07.739Z,98874.00
2023-04-04T02:10:35.975Z,98879.19
2023-04-04T02:13:04.498Z,98874.97
2023-04-04T02:15:34.531Z,98874.53
2023-04-04T02:18:03.708Z,98881.69
2023-04-04T02:20:31.878Z,98875.06
2023-04-04T02:23:00.361Z,98881.03
2023-04-04T02:25:28.485Z,98883.25
2023-04-04T02:27:57.032Z,98871.94
2023-04-04T02:30:25.234Z,98877.25
2023-04-04T02:32:55.200Z,98871.31
2023-04-04T02:35:23.471Z,98872.28
2023-04-04T02:37:52.056Z,98873.47
2023-04-04T02:40:20.171Z,98875.59
2023-04-04T02:42:48.660Z,98878.84
2023-04-04T02:45:17.697Z,98883.75
2023-04-04T02:47:51.172Z,98882.84
2023-04-04T02:50:21.340Z,98879.94
2023-04-04T02:52:49.887Z,98887.97
2023-04-04T02:55:18.172Z,98888.78
2023-04-04T02:57:52.374Z,98875.75
2023-04-04T03:00:21.447Z,98882.28
2023-04-04T03:02:55.151Z,98883.88
2023-04-04T03:05:25.094Z,98879.38
2023-04-04T03:07:56.341Z,98882.69
2023-04-04T03:10:24.655Z,98878.16
2023-04-04T03:12:53.250Z,98889.56
2023-04-04T03:15:21.626Z,98870.22
2023-04-04T03:17:50.232Z,98877.28
2023-04-04T03:20:18.780Z,98874.97
2023-04-04T03:22:48.693Z,98871.75
2023-04-04T03:25:17.193Z,98874.59
2023-04-04T03:27:45.830Z,98884.81
2023-04-04T03:30:14.269Z,98873.41
2023-04-04T03:32:42.857Z,98876.00
2023-04-04T03:35:11.859Z,98871.66
2023-04-04T03:37:40.578Z,98878.00
2023-04-04T03:40:11.149Z,98865.41
2023-04-04T03:42:39.664Z,98876.44
2023-04-04T03:45:08.798Z,98867.13
2023-04-04T03:47:37.461Z,98882.56
2023-04-04T03:50:06.415Z,98872.91
2023-04-04T03:52:38.981Z,98876.25
2023-04-04T03:55:08.237Z,98878.38
2023-04-04T03:57:38.094Z,98873.03
2023-04-04T04:00:07.384Z,98875.44
2023-04-04T04:02:36.029Z,98868.72
2023-04-04T04:05:04.699Z,98867.50
2023-04-04T04:07:33.173Z,98871.50
2023-04-04T04:10:01.722Z,98865.78
2023-04-04T04:12:30.246Z,98868.66
2023-04-04T04:14:59.776Z,98875.06
2023-04-04T04:17:28.346Z,98866.94
2023-04-04T04:19:56.490Z,98868.06
2023-04-04T04:22:25.060Z,98863.25
2023-04-04T04:24:53.199Z,98861.72
2023-04-04T04:27:21.575Z,98860.16
2023-04-04T04:29:49.893Z,98865.25
2023-04-04T04:32:20.302Z,98857.72
2023-04-04T04:34:48.424Z,98866.94
2023-04-04T04:37:17.524Z,98855.03
2023-04-04T04:39:45.663Z,98866.19
2023-04-04T04:42:14.097Z,98864.84
2023-04-04T04:44:42.330Z,98857.91
2023-04-04T04:47:11.380Z,98860.00
2023-04-04T04:49:42.337Z,98860.88
2023-04-04T04:52:11.109Z,98857.03
2023-04-04T04:54:39.222Z,98856.16
2023-04-04T04:57:08.129Z,98861.63
2023-04-04T04:59:37.234Z,98861.88
2023-04-04T05:02:06.007Z,98875.88
2023-04-04T05:04:34.311Z,98870.09
2023-04-04T05:07:04.128Z,98869.44
2023-04-04T05:09:32.522Z,98867.59
2023-04-04T05:12:01.604Z,98879.19
2023-04-04T05:14:29.870Z,98878.69
2023-04-04T05:16:58.447Z,98876.75
2023-04-04T05:19:26.835Z,98868.44
2023-04-04T05:21:55.384Z,98871.44
2023-04-04T05:24:24.871Z,98877.56
2023-04-04T05:26:53.394Z,98884.16
2023-04-04T05:29:21.873Z,98879.22
2023-04-04T05:31:50.592Z,98881.34
2023-04-04T05:34:18.732Z,98878.53
2023-04-04T05:36:47.559Z,98878.97
2023-04-04T05:39:15.750Z,98884.91
2023-04-04T05:41:45.799Z,98876.94
2023-04-04T05:44:14.067Z,98888.19
2023-04-04T05:46:42.536Z,98885.03
2023-04-04T05:49:10.705Z,98882.50
2023-04-04T05:51:39.631Z,98889.25
2023-04-04T05:54:08.314Z,98888.22
2023-04-04T05:56:36.816Z,98892.41
2023-04-04T05:59:06.695Z,98879.63
2023-04-04T06:01:35.165Z,98891.41
2023-04-04T06:04:03.488Z,98874.78
2023-04-04T06:06:31.952Z,98878.66
2023-04-04T06:09:00.175Z,98876.94
2023-04-04T06:11:29.085Z,98885.31
2023-04-04T06:13:57.348Z,98875.66
2023-04-04T06:16:27.530Z,98866.53
2023-04-04T06:18:55.965Z,98872.34
2023-04-04T06:21:24.560Z,98878.50
2023-04-04T06:23:52.844Z,98869.38
2023-04-04T06:26:22.011Z,98873.97
2023-04-04T06:28:50.944Z,98869.66
2023-04-04T06:31:19.700Z,98872.25
2023-04-04T06:33:49.493Z,98865.53
2023-04-04T06:36:18.126Z,98863.06
2023-04-04T06:38:46.426Z,98859.00
2023-04-04T06:41:15.100Z,98872.00
2023-04-04T06:43:43.762Z,98853.53
2023-04-04T06:46:12.453Z,98854.22
2023-04-04T06:48:40.776Z,98855.41
2023-04-04T06:51:11.423Z,98859.25
2023-04-04T06:53:39.929Z,98862.94
2023-04-04T06:56:09.554Z,98860.59
2023-04-04T06:58:39.228Z,98850.63
2023-04-04T07:01:07.739Z,98854.22
2023-04-04T07:03:36.064Z,98856.09
2023-04-04T07:06:05.006Z,98857.22
2023-04-04T07:08:36.662Z,98849.19
2023-04-04T07:11:06.536Z,98849.84
2023-04-04T07:13:35.615Z,98856.69
2023-04-04T07:16:04.195Z,98851.81
2023-04-04T07:18:32.484Z,98850.78
2023-04-04T07:21:01.123Z,98858.25
2023-04-04T07:23:29.282Z,98851.59
2023-04-04T07:25:59.136Z,98849.72
2023-04-04T07:28:27.300Z,98854.34
2023-04-04T07:30:55.754Z,98851.28
2023-04-04T07:33:24.092Z,98850.88
2023-04-04T07:35:53.358Z,98847.25
2023-04-04T07:38:22.006Z,98845.41
2023-04-04T07:40:50.796Z,98847.97
2023-04-04T07:43:20.619Z,98848.19
2023-04-04T07:45:49.157Z,98852.72
2023-04-04T07:48:19.643Z,98836.75
2023-04-04T07:50:48.996Z,98848.25
2023-04-04T07:53:17.173Z,98841.38
2023-04-04T07:55:45.699Z,98848.66
2023-04-04T07:58:13.924Z,98844.31
2023-04-04T08:00:43.704Z,98844.91
2023-04-04T08:03:12.544Z,98839.56
2023-04-04T08:05:41.356Z,98834.66
2023-04-04T08:08:09.518Z,98846.31
2023-04-04T08:10:38.416Z,98844.31
2023-04-04T08:13:07.074Z,98831.59
2023-04-04T08:15:35.685Z,98839.47
2023-04-04T08:18:05.552Z,98834.66
2023-04-04T08:20:35.220Z,98834.44
2023-04-04T08:23:04.383Z,98830.59
2023-04-04T08:25:32.878Z,98834.06
2023-04-04T08:28:01.292Z,98833.63
2023-04-04T08:30:29.718Z,98827.63
2023-04-04T08:32:57.950Z,98836.88
2023-04-04T08:35:28.049Z,98842.81
2023-04-04T08:37:57.440Z,98839.72
2023-04-04T08:40:26.223Z,98827.84
2023-04-04T08:42:54.676Z,98827.84
2023-04-04T08:45:23.373Z,98822.72
2023-04-04T08:47:53.991Z,98825.75
2023-04-04T08:50:23.335Z,98821.72
2023-04-04T08:52:53.677Z,98822.56
2023-04-04T08:55:22.746Z,98815.50
2023-04-04T08:57:50.967Z,98817.16
2023-04-04T09:00:21.694Z,98810.38
2023-04-04T09:02:57.989Z,98811.16
2023-04-04T09:05:27.360Z,98809.81
2023-04-04T09:07:57.713Z,98806.34
2023-04-04T09:10:27.110Z,98799.75
2023-04-04T09:13:05.092Z,98806.88
2023-04-04T09:15:42.901Z,98799.69
2023-04-04T09:18:11.122Z,98793.28
2023-04-04T09:20:41.414Z,98791.72
2023-04-04T09:23:12.888Z,98792.75
2023-04-04T09:25:56.558Z,98781.22
2023-04-04T09:28:31.330Z,98794.81
2023-04-04T09:31:02.472Z,98798.81
2023-04-04T09:33:34.434Z,98799.09
2023-04-04T09:36:04.598Z,98798.47
2023-04-04T09:38:38.025Z,98801.59
2023-04-04T09:41:09.779Z,98800.34
2023-04-04T09:43:38.575Z,98806.09
2023-04-04T09:46:07.976Z,98808.88
2023-04-04T09:48:37.722Z,98808.06
2023-04-04T09:51:07.484Z,98812.78
2023-04-04T09:53:38.202Z,98802.13
2023-04-04T09:56:07.833Z,98793.63
2023-04-04T09:58:36.731Z,98790.91
2023-04-04T10:01:10.048Z,98796.53
2023-04-04T10:03:39.730Z,98791.19
2023-04-04T10:06:10.047Z,98804.75
2023-04-04T10:08:41.234Z,98808.06
2023-04-04T10:11:12.312Z,98800.97
2023-04-04T10:13:44.320Z,98799.41
2023-04-04T10:16:20.859Z,98789.69
2023-04-04T10:18:52.008Z,98792.09
2023-04-04T10:21:20.402Z,98793.41
2023-04-04T10:23:50.733Z,98800.22
2023-04-04T10:26:27.905Z,98794.66
2023-04-04T10:29:00.660Z,98789.97
2023-04-04T10:31:34.329Z,98794.41
2023-04-04T10:34:12.938Z,98796.81
2023-04-04T10:36:46.543Z,98787.44
2023-04-04T10:39:22.804Z,98798.91
2023-04-04T10:41:52.857Z,98797.31
2023-04-04T10:44:28.760Z,98791.25
2023-04-04T10:46:59.723Z,98791.78
2023-04-04T10:49:29.909Z,98780.00
2023-04-04T10:51:58.703Z,98788.75
2023-04-04T10:54:29.263Z,98786.56
2023-04-04T10:57:00.896Z,98791.66
2023-04-04T10:59:29.209Z,98782.97
2023-04-04T11:01:59.235Z,98791.75
2023-04-04T11:04:34.218Z,98785.09
2023-04-04T11:07:10.913Z,98783.44
2023-04-04T11:10:04.827Z,98778.38
2023-04-04T11:12:36.398Z,98780.88
2023-04-04T11:15:11.550Z,98783.13
2023-04-04T11:17:57.759Z,98785.88
2023-04-04T11:20:30.795Z,98775.41
2023-04-04T11:23:07.616Z,98766.50
2023-04-04T11:25:42.155Z,98773.41
2023-04-04T11:28:15.868Z,98771.59
2023-04-04T11:30:50.339Z,98775.84
2023-04-04T11:33:30.826Z,98777.22
2023-04-04T11:36:08.397Z,98771.00
2023-04-04T11:38:41.349Z,98770.56
2023-04-04T11:41:11.884Z,98761.91
2023-04-04T11:43:46.804Z,98766.06
2023-04-04T11:46:18.642Z,98754.94
2023-04-04T11:48:47.428Z,98759.31
2023-04-04T11:51:15.954Z,98751.84
2023-04-04T11:53:44.735Z,98748.63
2023-04-04T11:56:18.134Z,98747.41
2023-04-04T11:58:53.841Z,98758.50
2023-04-04T12:01:27.222Z,98760.69
2023-04-04T12:03:55.882Z,98766.38
2023-04-04T12:06:24.274Z,98767.75
2023-04-04T12:08:52.835Z,98767.28
2023-04-04T12:11:23.621Z,98767.88
2023-04-04T12:13:52.549Z,98773.78
2023-04-04T12:16:20.968Z,98768.78
2023-04-04T12:18:50.887Z,98766.47
2023-04-04T12:21:19.196Z,98757.28
2023-04-04T12:23:48.607Z,98760.06
2023-04-04T12:26:17.118Z,98760.78
2023-04-04T12:28:47.306Z,98767.22
2023-04-04T12:31:16.288Z,98764.81
2023-04-04T12:33:45.004Z,98755.53
2023-04-04T12:36:13.208Z,98766.63
2023-04-04T12:38:57.852Z,98768.66
2023-04-04T12:41:26.035Z,98774.81
2023-04-04T12:44:02.371Z,98765.50
2023-04-04T12:46:36.809Z,98769.81
2023-04-04T12:49:05.499Z,98785.22
2023-04-04T12:51:34.503Z,98774.38
2023-04-04T12:54:05.361Z,98771.88
2023-04-04T12:56:33.723Z,98771.75
2023-04-04T12:59:04.798Z,98770.59
2023-04-04T13:01:33.505Z,98778.38
2023-04-04T13:04:04.698Z,98777.19
2023-04-04T13:06:33.918Z,98770.25
2023-04-04T13:09:04.170Z,98771.78
2023-04-04T13:11:59.990Z,98779.19
2023-04-04T13:14:30.244Z,98775.13
2023-04-04T13:17:08.360Z,98767.69
2023-04-04T13:19:37.084Z,98774.00
2023-04-04T13:22:08.894Z,98778.94
2023-04-04T13:24:39.253Z,98782.84
2023-04-04T13:27:08.286Z,98787.44
2023-04-04T13:29:38.342Z,98796.94
2023-04-04T13:32:06.817Z,98788.31
2023-04-04T13:34:36.275Z,98792.72
2023-04-04T13:37:04.762Z,98789.09
2023-04-04T13:39:33.396Z,98790.66
2023-04-04T13:42:02.190Z,98796.03
2023-04-04T13:44:30.741Z,98788.53
2023-04-04T13:47:01.431Z,98790.44
2023-04-04T13:49:30.063Z,98794.28
2023-04-04T13:51:58.337Z,98781.69
2023-04-04T13:54:27.034Z,98783.56
2023-04-04T13:56:56.619Z,98782.94
2023-04-04T13:59:25.164Z,98779.56
2023-04-04T14:01:53.736Z,98784.50
2023-04-04T14:04:24.352Z,98775.38
2023-04-04T14:06:52.908Z,98776.38
2023-04-04T14:09:21.427Z,98777.59
2023-04-04T14:11:49.743Z,98776.28
2023-04-04T14:14:18.284Z,98776.31
2023-04-04T14:16:46.522Z,98773.81
2023-04-04T14:22:02.682Z,98774.28
2023-04-04T14:24:31.252Z,98771.91
2023-04-04T14:26:59.603Z,98779.28
2023-04-04T14:29:28.378Z,98768.34
2023-04-04T14:31:56.860Z,98765.59
2023-04-04T14:34:28.134Z,98772.44
2023-04-04T14:36:56.334Z,98770.00
2023-04-04T14:39:31.307Z,98768.91
2023-04-04T14:41:59.583Z,98767.25
2023-04-04T14:44:28.402Z,98771.38
2023-04-04T14:46:56.790Z,98765.66
2023-04-04T14:49:28.550Z,98770.84
2023-04-04T14:51:56.785Z,98768.81
2023-04-04T14:54:30.628Z,98768.34
2023-04-04T14:56:59.068Z,98768.09
2023-04-04T14:59:30.772Z,98769.47
2023-04-04T15:01:59.117Z,98767.84
2023-04-04T15:04:29.936Z,98774.97
2023-04-04T15:07:03.359Z,98770.03
2023-04-04T15:09:36.239Z,98764.53
2023-04-04T15:12:04.646Z,98768.38
2023-04-04T15:14:33.255Z,98769.19
2023-04-04T15:17:01.691Z,98766.16
2023-04-04T15:19:30.141Z,98763.94
2023-04-04T15:21:58.344Z,98767.16
2023-04-04T15:24:27.143Z,98759.94
2023-04-04T15:26:57.778Z,98753.94
2023-04-04T15:29:26.578Z,98751.59
2023-04-04T15:31:54.964Z,98752.28
2023-04-04T15:34:23.565Z,98762.84
2023-04-04T15:36:52.276Z,98756.13
2023-04-04T15:39:20.799Z,98759.53
2023-04-04T15:41:49.048Z,98764.03
2023-04-04T15:44:19.143Z,98768.13
2023-04-04T15:46:47.535Z,98768.72
2023-04-04T15:49:16.196Z,98763.66
2023-04-04T15:51:46.044Z,98758.00
2023-04-04T15:54:14.734Z,98759.56
2023-04-04T15:56:43.102Z,98776.03
2023-04-04T15:59:11.781Z,98767.94
2023-04-04T16:01:42.005Z,98767.66
2023-04-04T16:04:10.660Z,98762.94
2023-04-04T16:06:39.207Z,98777.97
2023-04-04T16:09:07.631Z,98776.69
2023-04-04T16:11:35.808Z,98785.00
2023-04-04T16:14:06.003Z,98781.88
2023-04-04T16:16:34.440Z,98787.25
2023-04-04T16:19:04.335Z,98774.34
2023-04-04T16:21:32.692Z,98780.09
2023-04-04T16:24:03.572Z,98778.97
2023-04-04T16:26:31.840Z,98777.56
2023-04-04T16:29:03.241Z,98779.16
2023-04-04T16:31:31.564Z,98782.03
2023-04-04T16:34:00.306Z,98777.94
2023-04-04T16:36:30.144Z,98771.19
2023-04-04T16:38:59.586Z,98788.88
2023-04-04T16:41:27.848Z,98786.69
2023-04-04T16:43:56.420Z,98771.41
2023-04-04T16:46:24.673Z,98795.00
2023-04-04T16:48:53.479Z,98792.00
2023-04-04T16:51:21.768Z,98792.59
2023-04-04T16:53:51.808Z,98786.81
2023-04-04T16:56:20.034Z,98797.03
2023-04-04T16:58:48.573Z,98792.22
2023-04-04T17:01:20.839Z,98803.72
2023-04-04T17:03:49.708Z,98803.06
2023-04-04T17:06:18.234Z,98801.09
2023-04-04T17:08:46.852Z,98805.31
2023-04-04T17:11:16.988Z,98807.22
2023-04-04T17:13:46.158Z,98807.47
2023-04-04T17:16:14.622Z,98808.78
2023-04-04T17:18:43.394Z,98805.31
2023-04-04T17:21:11.634Z,98814.06
2023-04-04T17:23:40.287Z,98815.72
2023-04-04T17:26:08.474Z,98820.81
2023-04-04T17:28:38.890Z,98822.28
2023-04-04T17:31:07.763Z,98822.06
2023-04-04T17:33:36.407Z,98822.38
2023-04-04T17:36:05.165Z,98818.84
2023-04-04T17:38:34.267Z,98823.88
2023-04-04T17:41:04.293Z,98823.19
2023-04-04T17:43:33.001Z,98828.66
2023-04-04T17:46:02.819Z,98830.81
2023-04-04T17:48:33.629Z,98837.78
2023-04-04T17:51:02.231Z,98838.09
2023-04-04T17:53:30.932Z,98843.66
2023-04-04T17:55:59.889Z,98846.63
2023-04-04T17:58:28.369Z,98841.19
2023-04-04T18:00:57.670Z,98844.97
2023-04-04T18:03:28.180Z,98844.16
2023-04-04T18:05:57.133Z,98842.75
2023-04-04T18:08:25.872Z,98842.47
2023-04-04T18:10:54.055Z,98848.16
2023-04-04T18:13:22.665Z,98841.44
2023-04-04T18:15:51.752Z,98851.28
2023-04-04T18:18:21.605Z,98845.78
2023-04-04T18:20:51.335Z,98848.03
2023-04-04T18:23:19.829Z,98844.09
2023-04-04T18:25:48.092Z,98852.66
2023-04-04T18:28:16.522Z,98847.56
2023-04-04T18:30:44.827Z,98844.88
2023-04-04T18:33:13.452Z,98848.94
2023-04-04T18:35:41.744Z,98846.47
2023-04-04T18:38:12.280Z,98841.44
2023-04-04T18:40:40.616Z,98839.75
2023-04-04T18:43:09.321Z,98846.53
2023-04-04T18:45:40.712Z,98842.84
2023-04-04T18:48:09.564Z,98848.66
2023-04-04T18:50:37.908Z,98844.66
2023-04-04T18:53:06.823Z,98842.78
2023-04-04T18:55:36.468Z,98836.75
2023-04-04T18:58:05.112Z,98833.78
2023-04-04T19:00:35.745Z,98846.66
2023-04-04T19:03:04.766Z,98837.19
2023-04-04T19:05:34.177Z,98845.25
2023-04-04T19:08:03.336Z,98841.69
2023-04-04T19:10:31.675Z,98840.69
2023-04-04T19:13:01.583Z,98842.72
2023-04-04T19:15:30.485Z,98841.75
2023-04-04T19:17:58.975Z,98842.06
2023-04-04T19:20:27.386Z,98847.94
2023-04-04T19:22:55.929Z,98839.00
2023-04-04T19:25:24.042Z,98845.25
2023-04-04T19:27:52.577Z,98843.03
2023-04-04T19:30:41.810Z,98838.50
2023-04-04T19:33:12.022Z,98837.50
2023-04-04T19:35:51.827Z,98835.56
2023-04-04T19:38:26.117Z,98834.16
2023-04-04T19:40:57.905Z,98837.19
2023-04-04T19:43:28.549Z,98832.72
2023-04-04T19:46:00.607Z,98836.25
2023-04-04T19:48:46.125Z,98833.34
2023-04-04T19:51:38.986Z,98837.94
2023-04-04T19:54:09.943Z,98840.94
2023-04-04T19:56:38.046Z,98843.47
2023-04-04T19:59:10.447Z,98839.91
2023-04-04T20:01:44.873Z,98838.69
2023-04-04T20:04:19.006Z,98832.63
2023-04-04T20:06:49.073Z,98837.88
2023-04-04T20:09:32.670Z,98835.66
2023-04-04T20:12:00.882Z,98840.38
2023-04-04T20:14:30.050Z,98838.75
2023-04-04T20:16:59.679Z,98846.09
2023-04-04T20:19:29.068Z,98837.81
2023-04-04T20:21:57.335Z,98847.03
2023-04-04T20:24:26.121Z,98842.66
2023-04-04T20:26:59.264Z,98838.16
2023-04-04T20:29:29.476Z,98846.28
2023-04-04T20:32:02.861Z,98839.22
2023-04-04T20:34:45.727Z,98844.41
2023-04-04T20:37:16.393Z,98848.97
2023-04-04T20:39:49.312Z,98834.09
2023-04-04T20:42:44.718Z,98836.81
2023-04-04T20:45:39.385Z,98835.88
2023-04-04T20:48:09.500Z,98834.47
2023-04-04T20:50:45.772Z,98839.94
2023-04-04T20:53:20.657Z,98836.16
2023-04-04T20:55:50.540Z,98835.94
2023-04-04T20:58:28.011Z,98835.56
2023-04-04T21:00:58.065Z,98836.03
2023-04-04T21:03:36.829Z,98832.16
2023-04-04T21:06:16.092Z,98831.31
2023-04-04T21:08:46.063Z,98829.44
2023-04-04T21:11:15.481Z,98837.94
2023-04-04T21:13:45.680Z,98835.25
2023-04-04T21:16:16.979Z,98832.50
2023-04-04T21:18:47.326Z,98835.38
2023-04-04T21:21:18.925Z,98838.66
2023-04-04T21:23:52.742Z,98835.31
2023-04-04T21:26:27.772Z,98827.31
2023-04-04T21:28:56.550Z,98840.28
2023-04-04T21:31:27.077Z,98837.50
2023-04-04T21:33:58.373Z,98835.53
2023-04-04T21:36:29.722Z,98830.56
2023-04-04T21:38:59.099Z,98835.22
2023-04-04T21:41:28.844Z,98832.75
2023-04-04T21:43:58.092Z,98832.28
2023-04-04T21:46:27.754Z,98827.84
2023-04-04T21:48:57.636Z,98819.00
2023-04-04T21:51:26.337Z,98825.41
2023-04-04T21:53:54.922Z,98815.31
2023-04-04T21:56:27.374Z,98822.41
2023-04-04T21:58:56.072Z,98814.00
2023-04-04T22:01:25.434Z,98811.66
2023-04-04T22:03:53.663Z,98815.94
2023-04-04T22:06:25.492Z,98809.06
2023-04-04T22:08:53.709Z,98808.56
2023-04-04T22:11:23.152Z,98809.84
2023-04-04T22:13:51.889Z,98805.56
2023-04-04T22:16:21.253Z,98809.09
2023-04-04T22:18:52.312Z,98807.81
2023-04-04T22:21:26.057Z,98803.81
2023-04-04T22:24:01.132Z,98795.75
2023-04-04T22:26:35.798Z,98804.28
2023-04-04T22:29:05.549Z,98799.75
2023-04-04T22:31:35.403Z,98811.03
2023-04-04T22:34:04.071Z,98806.00
2023-04-04T22:36:34.680Z,98802.63
2023-04-04T22:39:04.950Z,98797.66
2023-04-04T22:41:33.452Z,98798.47
2023-04-04T22:44:01.613Z,98796.22
2023-04-04T22:46:30.123Z,98799.25
2023-04-04T22:49:05.731Z,98805.53
2023-04-04T22:51:43.510Z,98804.19
2023-04-04T22:54:14.677Z,98800.66
2023-04-04T22:56:43.369Z,98788.38
2023-04-04T22:59:11.816Z,98799.81
2023-04-04T23:01:40.665Z,98798.31
2023-04-04T23:04:08.971Z,98787.06
2023-04-04T23:06:38.598Z,98794.16
2023-04-04T23:09:08.248Z,98784.78
2023-04-04T23:11:38.251Z,98787.13
2023-04-04T23:14:09.426Z,98785.22
2023-04-04T23:16:41.106Z,98791.84
2023-04-04T23:19:09.847Z,98778.78
2023-04-04T23:21:38.383Z,98777.59
2023-04-04T23:24:07.504Z,98778.63
2023-04-04T23:26:37.283Z,98773.50
2023-04-04T23:29:05.910Z,98769.59
2023-04-04T23:31:37.579Z,98770.91
2023-04-04T23:34:05.645Z,98770.34
2023-04-04T23:36:34.258Z,98757.84
2023-04-04T23:39:03.432Z,98759.41
2023-04-04T23:41:32.330Z,98760.03
2023-04-04T23:44:02.246Z,98753.91
2023-04-04T23:46:32.775Z,98761.97
2023-04-04T23:49:01.368Z,98756.16
2023-04-04T23:51:37.926Z,98751.19
2023-04-04T23:54:06.629Z,98752.00
2023-04-04T23:56:35.242Z,98755.00
2023-04-04T23:59:05.807Z,98754.97
